sensor_id;sensor_type;location;lat;lon;timestamp;pressure;altitude;pressure_sealevel;temperature;humidity
9764;BME280;4921;43.214;27.936;2023-05-23T00:01:02;100575.84;;;19.38;100.00
9764;BME280;4921;43.214;27.936;2023-05-23T00:03:32;100575.84;;;19.38;100.00
9764;BME280;4921;43.214;27.936;2023-05-23T00:05:59;100574.66;;;19.40;100.00
9764;BME280;4921;43.214;27.936;2023-05-23T00:08:27;100581.81;;;19.40;100.00
9764;BME280;4921;43.214;27.936;2023-05-23T00:10:55;100572.16;;;19.39;100.00
9764;BME280;4921;43.214;27.936;2023-05-23T00:13:22;100573.00;;;19.39;100.00
9764;BME280;4921;43.214;27.936;2023-05-23T00:15:49;100570.44;;;19.46;100.00
9764;BME280;4921;43.214;27.936;2023-05-23T00:18:17;100570.91;;;19.49;100.00
9764;BME280;4921;43.214;27.936;2023-05-23T00:20:44;100571.06;;;19.48;100.00
9764;BME280;4921;43.214;27.936;2023-05-23T00:23:11;100567.75;;;19.46;100.00
9764;BME280;4921;43.214;27.936;2023-05-23T00:25:44;100566.47;;;19.42;100.00
9764;BME280;4921;43.214;27.936;2023-05-23T00:28:14;100570.63;;;19.44;100.00
9764;BME280;4921;43.214;27.936;2023-05-23T00:30:41;100578.25;;;19.47;100.00
9764;BME280;4921;43.214;27.936;2023-05-23T00:33:09;100565.75;;;19.48;100.00
9764;BME280;4921;43.214;27.936;2023-05-23T00:35:38;100558.56;;;19.48;100.00
9764;BME280;4921;43.214;27.936;2023-05-23T00:38:05;100559.75;;;19.46;100.00
9764;BME280;4921;43.214;27.936;2023-05-23T00:40:32;100563.72;;;19.50;100.00
9764;BME280;4921;43.214;27.936;2023-05-23T00:42:59;100560.41;;;19.48;100.00
9764;BME280;4921;43.214;27.936;2023-05-23T00:45:28;100555.72;;;19.50;100.00
9764;BME280;4921;43.214;27.936;2023-05-23T00:47:55;100546.16;;;19.41;100.00
9764;BME280;4921;43.214;27.936;2023-05-23T00:50:24;100550.22;;;19.51;100.00
9764;BME280;4921;43.214;27.936;2023-05-23T00:52:54;100552.50;;;19.54;100.00
9764;BME280;4921;43.214;27.936;2023-05-23T00:55:22;100553.34;;;19.55;100.00
9764;BME280;4921;43.214;27.936;2023-05-23T00:57:49;100548.91;;;19.47;100.00
9764;BME280;4921;43.214;27.936;2023-05-23T01:00:19;100548.75;;;19.49;100.00
9764;BME280;4921;43.214;27.936;2023-05-23T01:02:47;100547.66;;;19.58;100.00
9764;BME280;4921;43.214;27.936;2023-05-23T01:05:43;100545.88;;;19.50;100.00
9764;BME280;4921;43.214;27.936;2023-05-23T01:08:09;100554.81;;;19.57;100.00
9764;BME280;4921;43.214;27.936;2023-05-23T01:10:36;100532.09;;;19.47;100.00
9764;BME280;4921;43.214;27.936;2023-05-23T01:13:14;100539.66;;;19.58;100.00
9764;BME280;4921;43.214;27.936;2023-05-23T01:15:50;100551.63;;;19.62;100.00
9764;BME280;4921;43.214;27.936;2023-05-23T01:18:27;100542.44;;;19.64;100.00
9764;BME280;4921;43.214;27.936;2023-05-23T01:20:59;100539.47;;;19.59;100.00
9764;BME280;4921;43.214;27.936;2023-05-23T01:26:45;100537.97;;;19.57;100.00
9764;BME280;4921;43.214;27.936;2023-05-23T01:29:21;100543.31;;;19.57;100.00
9764;BME280;4921;43.214;27.936;2023-05-23T01:31:52;100550.03;;;19.53;100.00
9764;BME280;4921;43.214;27.936;2023-05-23T01:34:20;100547.38;;;19.53;100.00
9764;BME280;4921;43.214;27.936;2023-05-23T01:36:49;100541.81;;;19.40;100.00
9764;BME280;4921;43.214;27.936;2023-05-23T01:39:16;100538.59;;;19.44;100.00
9764;BME280;4921;43.214;27.936;2023-05-23T01:41:43;100536.59;;;19.46;100.00
9764;BME280;4921;43.214;27.936;2023-05-23T01:44:10;100535.75;;;19.46;100.00
9764;BME280;4921;43.214;27.936;2023-05-23T01:46:39;100537.44;;;19.47;100.00
9764;BME280;4921;43.214;27.936;2023-05-23T01:49:08;100538.22;;;19.47;100.00
9764;BME280;4921;43.214;27.936;2023-05-23T01:51:37;100530.16;;;19.41;100.00
9764;BME280;4921;43.214;27.936;2023-05-23T01:54:05;100528.94;;;19.43;100.00
9764;BME280;4921;43.214;27.936;2023-05-23T01:56:33;100533.47;;;19.43;100.00
9764;BME280;4921;43.214;27.936;2023-05-23T01:59:00;100526.66;;;19.40;100.00
9764;BME280;4921;43.214;27.936;2023-05-23T02:01:28;100531.78;;;19.42;100.00
9764;BME280;4921;43.214;27.936;2023-05-23T02:03:56;100530.31;;;19.39;100.00
9764;BME280;4921;43.214;27.936;2023-05-23T02:06:23;100529.59;;;19.45;100.00
9764;BME280;4921;43.214;27.936;2023-05-23T02:08:51;100521.47;;;19.39;100.00
9764;BME280;4921;43.214;27.936;2023-05-23T02:11:17;100538.59;;;19.44;100.00
9764;BME280;4921;43.214;27.936;2023-05-23T02:13:44;100528.13;;;19.43;100.00
9764;BME280;4921;43.214;27.936;2023-05-23T02:16:12;100523.59;;;19.43;100.00
9764;BME280;4921;43.214;27.936;2023-05-23T02:18:40;100521.13;;;19.42;100.00
9764;BME280;4921;43.214;27.936;2023-05-23T02:21:08;100517.81;;;19.40;100.00
9764;BME280;4921;43.214;27.936;2023-05-23T02:23:35;100519.19;;;19.36;100.00
9764;BME280;4921;43.214;27.936;2023-05-23T02:26:02;100515.50;;;19.37;100.00
9764;BME280;4921;43.214;27.936;2023-05-23T02:28:29;100520.22;;;19.27;100.00
9764;BME280;4921;43.214;27.936;2023-05-23T02:30:56;100520.03;;;19.28;100.00
9764;BME280;4921;43.214;27.936;2023-05-23T02:33:23;100531.34;;;19.30;100.00
9764;BME280;4921;43.214;27.936;2023-05-23T02:35:50;100530.16;;;19.33;100.00
9764;BME280;4921;43.214;27.936;2023-05-23T02:38:21;100520.53;;;19.32;100.00
9764;BME280;4921;43.214;27.936;2023-05-23T02:40:48;100532.09;;;19.24;100.00
9764;BME280;4921;43.214;27.936;2023-05-23T02:43:16;100527.28;;;19.20;100.00
9764;BME280;4921;43.214;27.936;2023-05-23T02:45:43;100528.41;;;19.25;100.00
9764;BME280;4921;43.214;27.936;2023-05-23T02:48:10;100538.44;;;19.23;100.00
9764;BME280;4921;43.214;27.936;2023-05-23T02:50:37;100530.06;;;19.26;100.00
9764;BME280;4921;43.214;27.936;2023-05-23T02:53:04;100530.03;;;19.34;100.00
9764;BME280;4921;43.214;27.936;2023-05-23T02:55:33;100533.03;;;19.31;100.00
9764;BME280;4921;43.214;27.936;2023-05-23T02:58:00;100518.59;;;19.26;100.00
9764;BME280;4921;43.214;27.936;2023-05-23T03:00:30;100528.53;;;19.32;100.00
9764;BME280;4921;43.214;27.936;2023-05-23T03:02:58;100534.34;;;19.35;100.00
9764;BME280;4921;43.214;27.936;2023-05-23T03:05:24;100526.41;;;19.27;100.00
9764;BME280;4921;43.214;27.936;2023-05-23T03:07:52;100528.13;;;19.20;100.00
9764;BME280;4921;43.214;27.936;2023-05-23T03:10:19;100528.13;;;19.20;100.00
9764;BME280;4921;43.214;27.936;2023-05-23T03:12:47;100534.63;;;19.18;100.00
9764;BME280;4921;43.214;27.936;2023-05-23T03:15:14;100531.97;;;19.18;100.00
9764;BME280;4921;43.214;27.936;2023-05-23T03:17:41;100533.00;;;19.17;100.00
9764;BME280;4921;43.214;27.936;2023-05-23T03:20:09;100531.81;;;19.19;100.00
9764;BME280;4921;43.214;27.936;2023-05-23T03:22:36;100535.16;;;19.13;100.00
9764;BME280;4921;43.214;27.936;2023-05-23T03:25:04;100536.31;;;19.19;100.00
9764;BME280;4921;43.214;27.936;2023-05-23T03:27:31;100542.75;;;19.24;100.00
9764;BME280;4921;43.214;27.936;2023-05-23T03:29:59;100543.25;;;19.28;100.00
9764;BME280;4921;43.214;27.936;2023-05-23T03:32:26;100553.06;;;19.27;100.00
9764;BME280;4921;43.214;27.936;2023-05-23T03:34:53;100546.38;;;19.31;100.00
9764;BME280;4921;43.214;27.936;2023-05-23T03:37:20;100543.41;;;19.26;100.00
9764;BME280;4921;43.214;27.936;2023-05-23T03:39:47;100551.69;;;19.31;100.00
9764;BME280;4921;43.214;27.936;2023-05-23T03:42:14;100556.19;;;19.31;100.00
9764;BME280;4921;43.214;27.936;2023-05-23T03:44:41;100555.00;;;19.33;100.00
9764;BME280;4921;43.214;27.936;2023-05-23T03:47:10;100559.84;;;19.38;100.00
9764;BME280;4921;43.214;27.936;2023-05-23T03:49:37;100555.81;;;19.42;100.00
9764;BME280;4921;43.214;27.936;2023-05-23T03:52:04;100566.28;;;19.43;100.00
9764;BME280;4921;43.214;27.936;2023-05-23T03:54:31;100573.09;;;19.46;100.00
9764;BME280;4921;43.214;27.936;2023-05-23T03:56:58;100573.69;;;19.56;100.00
9764;BME280;4921;43.214;27.936;2023-05-23T03:59:25;100574.16;;;19.74;100.00
9764;BME280;4921;43.214;27.936;2023-05-23T04:01:52;100572.03;;;19.69;100.00
9764;BME280;4921;43.214;27.936;2023-05-23T04:04:20;100559.00;;;19.74;100.00
9764;BME280;4921;43.214;27.936;2023-05-23T04:06:49;100567.38;;;19.86;100.00
9764;BME280;4921;43.214;27.936;2023-05-23T04:09:16;100570.50;;;19.90;100.00
9764;BME280;4921;43.214;27.936;2023-05-23T04:11:43;100564.44;;;19.96;100.00
9764;BME280;4921;43.214;27.936;2023-05-23T04:14:10;100555.59;;;19.95;100.00
9764;BME280;4921;43.214;27.936;2023-05-23T04:16:38;100556.88;;;19.99;100.00
9764;BME280;4921;43.214;27.936;2023-05-23T04:19:07;100562.22;;;19.99;100.00
9764;BME280;4921;43.214;27.936;2023-05-23T04:21:35;100557.34;;;20.03;100.00
9764;BME280;4921;43.214;27.936;2023-05-23T04:24:02;100565.34;;;20.03;100.00
9764;BME280;4921;43.214;27.936;2023-05-23T04:26:30;100563.53;;;20.03;100.00
9764;BME280;4921;43.214;27.936;2023-05-23T04:28:57;100571.78;;;20.08;100.00
9764;BME280;4921;43.214;27.936;2023-05-23T04:31:24;100563.63;;;20.10;100.00
9764;BME280;4921;43.214;27.936;2023-05-23T04:33:51;100581.00;;;20.06;100.00
9764;BME280;4921;43.214;27.936;2023-05-23T04:36:18;100570.16;;;20.07;100.00
9764;BME280;4921;43.214;27.936;2023-05-23T04:38:49;100576.22;;;20.01;100.00
9764;BME280;4921;43.214;27.936;2023-05-23T04:41:16;100586.81;;;19.95;100.00
9764;BME280;4921;43.214;27.936;2023-05-23T04:43:47;100578.59;;;19.82;100.00
9764;BME280;4921;43.214;27.936;2023-05-23T04:46:19;100590.56;;;19.86;100.00
9764;BME280;4921;43.214;27.936;2023-05-23T04:48:51;100593.69;;;19.89;100.00
9764;BME280;4921;43.214;27.936;2023-05-23T04:51:18;100593.97;;;19.94;100.00
9764;BME280;4921;43.214;27.936;2023-05-23T04:53:46;100589.84;;;19.92;100.00
9764;BME280;4921;43.214;27.936;2023-05-23T04:56:14;100588.66;;;19.94;100.00
9764;BME280;4921;43.214;27.936;2023-05-23T04:58:41;100596.28;;;19.97;100.00
9764;BME280;4921;43.214;27.936;2023-05-23T05:01:09;100590.94;;;19.97;100.00
9764;BME280;4921;43.214;27.936;2023-05-23T05:03:36;100580.53;;;19.88;100.00
9764;BME280;4921;43.214;27.936;2023-05-23T05:06:04;100598.41;;;20.02;100.00
9764;BME280;4921;43.214;27.936;2023-05-23T05:08:31;100586.13;;;19.93;100.00
9764;BME280;4921;43.214;27.936;2023-05-23T05:10:58;100607.03;;;20.04;100.00
9764;BME280;4921;43.214;27.936;2023-05-23T05:13:27;100603.19;;;20.06;100.00
9764;BME280;4921;43.214;27.936;2023-05-23T05:15:54;100603.00;;;20.08;100.00
9764;BME280;4921;43.214;27.936;2023-05-23T05:18:21;100612.69;;;20.09;100.00
9764;BME280;4921;43.214;27.936;2023-05-23T05:20:48;100603.09;;;20.14;100.00
9764;BME280;4921;43.214;27.936;2023-05-23T05:23:15;100618.75;;;20.17;100.00
9764;BME280;4921;43.214;27.936;2023-05-23T05:25:42;100616.56;;;20.21;100.00
9764;BME280;4921;43.214;27.936;2023-05-23T05:28:09;100603.22;;;20.21;100.00
9764;BME280;4921;43.214;27.936;2023-05-23T05:30:38;100603.69;;;20.24;100.00
9764;BME280;4921;43.214;27.936;2023-05-23T05:33:06;100619.34;;;20.27;100.00
9764;BME280;4921;43.214;27.936;2023-05-23T05:35:34;100610.31;;;20.28;100.00
9764;BME280;4921;43.214;27.936;2023-05-23T05:38:03;100617.78;;;20.33;100.00
9764;BME280;4921;43.214;27.936;2023-05-23T05:40:30;100618.78;;;20.32;100.00
9764;BME280;4921;43.214;27.936;2023-05-23T05:42:57;100619.44;;;20.34;100.00
9764;BME280;4921;43.214;27.936;2023-05-23T05:45:24;100619.91;;;20.37;100.00
9764;BME280;4921;43.214;27.936;2023-05-23T05:47:52;100626.72;;;20.40;100.00
9764;BME280;4921;43.214;27.936;2023-05-23T05:50:19;100626.97;;;20.45;100.00
9764;BME280;4921;43.214;27.936;2023-05-23T05:52:46;100624.31;;;20.45;100.00
9764;BME280;4921;43.214;27.936;2023-05-23T05:55:13;100630.78;;;20.50;100.00
9764;BME280;4921;43.214;27.936;2023-05-23T05:57:40;100628.75;;;20.52;100.00
9764;BME280;4921;43.214;27.936;2023-05-23T06:00:09;100619.25;;;20.50;100.00
9764;BME280;4921;43.214;27.936;2023-05-23T06:02:39;100632.13;;;20.61;100.00
9764;BME280;4921;43.214;27.936;2023-05-23T06:05:09;100628.63;;;20.61;100.00
9764;BME280;4921;43.214;27.936;2023-05-23T06:07:37;100622.91;;;20.64;100.00
9764;BME280;4921;43.214;27.936;2023-05-23T06:10:06;100639.28;;;20.75;100.00
9764;BME280;4921;43.214;27.936;2023-05-23T06:12:33;100635.63;;;20.76;100.00
9764;BME280;4921;43.214;27.936;2023-05-23T06:15:00;100637.91;;;20.79;100.00
9764;BME280;4921;43.214;27.936;2023-05-23T06:17:27;100618.09;;;20.74;100.00
9764;BME280;4921;43.214;27.936;2023-05-23T06:19:54;100633.25;;;20.88;100.00
9764;BME280;4921;43.214;27.936;2023-05-23T06:22:22;100640.09;;;20.90;100.00
9764;BME280;4921;43.214;27.936;2023-05-23T06:24:49;100636.84;;;20.95;100.00
9764;BME280;4921;43.214;27.936;2023-05-23T06:27:16;100635.28;;;21.00;100.00
9764;BME280;4921;43.214;27.936;2023-05-23T06:29:43;100638.44;;;21.04;100.00
9764;BME280;4921;43.214;27.936;2023-05-23T06:32:10;100647.72;;;21.08;100.00
9764;BME280;4921;43.214;27.936;2023-05-23T06:34:36;100648.56;;;21.08;100.00
9764;BME280;4921;43.214;27.936;2023-05-23T06:37:04;100632.97;;;21.12;100.00
9764;BME280;4921;43.214;27.936;2023-05-23T06:39:32;100647.81;;;21.14;100.00
9764;BME280;4921;43.214;27.936;2023-05-23T06:41:59;100641.44;;;21.15;100.00
9764;BME280;4921;43.214;27.936;2023-05-23T06:44:27;100650.03;;;21.11;100.00
9764;BME280;4921;43.214;27.936;2023-05-23T06:46:54;100660.34;;;21.14;100.00
9764;BME280;4921;43.214;27.936;2023-05-23T06:49:23;100652.31;;;21.14;100.00
9764;BME280;4921;43.214;27.936;2023-05-23T06:51:50;100639.50;;;21.09;100.00
9764;BME280;4921;43.214;27.936;2023-05-23T06:54:18;100643.38;;;21.21;100.00
9764;BME280;4921;43.214;27.936;2023-05-23T06:56:47;100645.00;;;21.22;100.00
9764;BME280;4921;43.214;27.936;2023-05-23T06:59:14;100638.66;;;21.23;100.00
9764;BME280;4921;43.214;27.936;2023-05-23T07:01:41;100634.78;;;21.26;100.00
9764;BME280;4921;43.214;27.936;2023-05-23T07:04:08;100635.19;;;21.30;100.00
9764;BME280;4921;43.214;27.936;2023-05-23T07:06:36;100630.50;;;21.32;100.00
9764;BME280;4921;43.214;27.936;2023-05-23T07:09:04;100629.66;;;21.31;100.00
9764;BME280;4921;43.214;27.936;2023-05-23T07:11:31;100629.66;;;21.31;100.00
9764;BME280;4921;43.214;27.936;2023-05-23T07:13:59;100625.78;;;21.34;100.00
9764;BME280;4921;43.214;27.936;2023-05-23T07:16:26;100626.03;;;21.39;100.00
9764;BME280;4921;43.214;27.936;2023-05-23T07:18:53;100627.69;;;21.40;100.00
9764;BME280;4921;43.214;27.936;2023-05-23T07:21:20;100634.69;;;21.19;100.00
9764;BME280;4921;43.214;27.936;2023-05-23T07:23:47;100627.38;;;21.28;100.00
9764;BME280;4921;43.214;27.936;2023-05-23T07:26:14;100636.47;;;21.34;100.00
9764;BME280;4921;43.214;27.936;2023-05-23T07:28:41;100629.84;;;21.30;100.00
9764;BME280;4921;43.214;27.936;2023-05-23T07:31:09;100635.41;;;21.28;100.00
9764;BME280;4921;43.214;27.936;2023-05-23T07:33:36;100624.06;;;21.26;100.00
9764;BME280;4921;43.214;27.936;2023-05-23T07:36:03;100625.56;;;21.35;100.00
9764;BME280;4921;43.214;27.936;2023-05-23T07:38:30;100622.09;;;21.35;100.00
9764;BME280;4921;43.214;27.936;2023-05-23T07:40:57;100624.31;;;21.31;100.00
9764;BME280;4921;43.214;27.936;2023-05-23T07:43:24;100626.91;;;21.24;100.00
9764;BME280;4921;43.214;27.936;2023-05-23T07:45:51;100634.78;;;21.26;100.00
9764;BME280;4921;43.214;27.936;2023-05-23T07:48:20;100634.94;;;21.24;100.00
9764;BME280;4921;43.214;27.936;2023-05-23T07:50:46;100632.09;;;21.26;100.00
9764;BME280;4921;43.214;27.936;2023-05-23T07:53:14;100638.66;;;21.23;100.00
9764;BME280;4921;43.214;27.936;2023-05-23T07:55:41;100629.41;;;21.26;100.00
9764;BME280;4921;43.214;27.936;2023-05-23T07:58:08;100634.56;;;21.27;100.00
9764;BME280;4921;43.214;27.936;2023-05-23T08:00:35;100640.94;;;21.26;100.00
9764;BME280;4921;43.214;27.936;2023-05-23T08:03:03;100639.09;;;21.27;100.00
9764;BME280;4921;43.214;27.936;2023-05-23T08:05:32;100641.38;;;21.30;100.00
9764;BME280;4921;43.214;27.936;2023-05-23T08:07:58;100642.03;;;21.32;100.00
9764;BME280;4921;43.214;27.936;2023-05-23T08:10:25;100637.31;;;21.34;100.00
9764;BME280;4921;43.214;27.936;2023-05-23T08:12:54;100620.94;;;21.22;100.00
9764;BME280;4921;43.214;27.936;2023-05-23T08:15:20;100631.53;;;21.31;100.00
9764;BME280;4921;43.214;27.936;2023-05-23T08:17:48;100633.78;;;21.12;100.00
9764;BME280;4921;43.214;27.936;2023-05-23T08:20:15;100633.22;;;21.17;100.00
9764;BME280;4921;43.214;27.936;2023-05-23T08:22:44;100630.56;;;21.17;100.00
9764;BME280;4921;43.214;27.936;2023-05-23T08:25:11;100630.22;;;21.05;100.00
9764;BME280;4921;43.214;27.936;2023-05-23T08:27:38;100624.59;;;21.00;100.00
9764;BME280;4921;43.214;27.936;2023-05-23T08:30:06;100625.41;;;21.15;100.00
9764;BME280;4921;43.214;27.936;2023-05-23T08:32:34;100618.09;;;21.24;100.00
9764;BME280;4921;43.214;27.936;2023-05-23T08:35:01;100626.97;;;21.31;100.00
9764;BME280;4921;43.214;27.936;2023-05-23T08:37:27;100625.72;;;21.27;100.00
9764;BME280;4921;43.214;27.936;2023-05-23T08:39:56;100632.78;;;21.35;100.00
9764;BME280;4921;43.214;27.936;2023-05-23T08:42:23;100625.00;;;21.40;100.00
9764;BME280;4921;43.214;27.936;2023-05-23T08:44:50;100615.19;;;21.47;100.00
9764;BME280;4921;43.214;27.936;2023-05-23T08:47:18;100620.59;;;21.53;100.00
9764;BME280;4921;43.214;27.936;2023-05-23T08:49:46;100628.06;;;21.58;100.00
9764;BME280;4921;43.214;27.936;2023-05-23T08:52:17;100631.94;;;21.55;100.00
9764;BME280;4921;43.214;27.936;2023-05-23T08:54:48;100630.22;;;21.69;100.00
9764;BME280;4921;43.214;27.936;2023-05-23T08:57:16;100632.50;;;21.72;100.00
9764;BME280;4921;43.214;27.936;2023-05-23T08:59:43;100625.81;;;21.82;100.00
9764;BME280;4921;43.214;27.936;2023-05-23T09:02:13;100639.53;;;21.52;100.00
9764;BME280;4921;43.214;27.936;2023-05-23T09:04:40;100643.00;;;20.74;100.00
9764;BME280;4921;43.214;27.936;2023-05-23T09:07:09;100646.16;;;20.48;100.00
9764;BME280;4921;43.214;27.936;2023-05-23T09:09:37;100641.44;;;20.36;100.00
9764;BME280;4921;43.214;27.936;2023-05-23T09:12:05;100644.28;;;20.20;100.00
9764;BME280;4921;43.214;27.936;2023-05-23T09:14:33;100641.72;;;20.26;100.00
9764;BME280;4921;43.214;27.936;2023-05-23T09:17:02;100617.72;;;19.89;100.00
9764;BME280;4921;43.214;27.936;2023-05-23T09:19:29;100625.84;;;19.96;100.00
9764;BME280;4921;43.214;27.936;2023-05-23T09:21:56;100632.13;;;20.17;100.00
9764;BME280;4921;43.214;27.936;2023-05-23T09:24:23;100622.06;;;20.05;100.00
9764;BME280;4921;43.214;27.936;2023-05-23T09:26:49;100630.44;;;20.02;100.00
9764;BME280;4921;43.214;27.936;2023-05-23T09:29:19;100620.31;;;19.97;100.00
9764;BME280;4921;43.214;27.936;2023-05-23T09:31:47;100622.41;;;19.87;100.00
9764;BME280;4921;43.214;27.936;2023-05-23T09:34:14;100622.81;;;19.99;100.00
9764;BME280;4921;43.214;27.936;2023-05-23T09:36:41;100616.75;;;20.34;100.00
9764;BME280;4921;43.214;27.936;2023-05-23T09:39:10;100623.56;;;20.51;100.00
9764;BME280;4921;43.214;27.936;2023-05-23T09:41:37;100634.34;;;20.43;100.00
9764;BME280;4921;43.214;27.936;2023-05-23T09:44:05;100637.34;;;19.96;100.00
9764;BME280;4921;43.214;27.936;2023-05-23T09:46:34;100639.78;;;19.68;100.00
9764;BME280;4921;43.214;27.936;2023-05-23T09:49:14;100633.06;;;19.72;100.00
9764;BME280;4921;43.214;27.936;2023-05-23T09:51:41;100641.00;;;19.81;100.00
9764;BME280;4921;43.214;27.936;2023-05-23T09:54:08;100646.66;;;19.63;100.00
9764;BME280;4921;43.214;27.936;2023-05-23T09:56:39;100659.59;;;19.21;100.00
9764;BME280;4921;43.214;27.936;2023-05-23T09:59:11;100665.25;;;19.26;100.00
9764;BME280;4921;43.214;27.936;2023-05-23T10:01:40;100664.16;;;18.81;100.00
9764;BME280;4921;43.214;27.936;2023-05-23T10:04:09;100669.31;;;19.14;100.00
9764;BME280;4921;43.214;27.936;2023-05-23T10:06:40;100667.44;;;18.91;100.00
9764;BME280;4921;43.214;27.936;2023-05-23T10:09:09;100665.78;;;18.52;100.00
9764;BME280;4921;43.214;27.936;2023-05-23T10:12:20;100670.03;;;18.69;100.00
9764;BME280;4921;43.214;27.936;2023-05-23T10:15:02;100669.06;;;18.62;100.00
9764;BME280;4921;43.214;27.936;2023-05-23T10:17:35;100667.91;;;18.64;100.00
9764;BME280;4921;43.214;27.936;2023-05-23T10:20:10;100674.28;;;18.86;100.00
9764;BME280;4921;43.214;27.936;2023-05-23T10:22:38;100667.16;;;18.78;100.00
9764;BME280;4921;43.214;27.936;2023-05-23T10:25:06;100662.97;;;18.29;100.00
9764;BME280;4921;43.214;27.936;2023-05-23T10:27:33;100665.50;;;18.14;100.00
9764;BME280;4921;43.214;27.936;2023-05-23T10:30:00;100671.69;;;17.91;100.00
9764;BME280;4921;43.214;27.936;2023-05-23T10:32:28;100671.03;;;18.05;100.00
9764;BME280;4921;43.214;27.936;2023-05-23T10:34:59;100668.19;;;18.06;100.00
9764;BME280;4921;43.214;27.936;2023-05-23T10:37:34;100661.38;;;17.88;100.00
9764;BME280;4921;43.214;27.936;2023-05-23T10:40:07;100673.16;;;18.09;100.00
9764;BME280;4921;43.214;27.936;2023-05-23T10:42:42;100678.00;;;18.22;100.00
9764;BME280;4921;43.214;27.936;2023-05-23T10:45:17;100679.31;;;18.26;100.00
9764;BME280;4921;43.214;27.936;2023-05-23T10:47:46;100685.44;;;18.26;100.00
9764;BME280;4921;43.214;27.936;2023-05-23T10:50:13;100687.78;;;18.29;100.00
9764;BME280;4921;43.214;27.936;2023-05-23T10:52:42;100694.28;;;18.19;100.00
9764;BME280;4921;43.214;27.936;2023-05-23T10:55:13;100701.28;;;18.20;100.00
9764;BME280;4921;43.214;27.936;2023-05-23T10:57:42;100672.53;;;17.99;100.00
9764;BME280;4921;43.214;27.936;2023-05-23T11:00:14;100675.53;;;17.88;100.00
9764;BME280;4921;43.214;27.936;2023-05-23T11:02:53;100697.13;;;18.01;100.00
9764;BME280;4921;43.214;27.936;2023-05-23T11:05:22;100692.47;;;18.03;100.00
9764;BME280;4921;43.214;27.936;2023-05-23T11:08:10;100694.00;;;17.98;100.00
9764;BME280;4921;43.214;27.936;2023-05-23T11:10:51;100685.16;;;18.05;100.00
9764;BME280;4921;43.214;27.936;2023-05-23T11:13:20;100683.69;;;17.87;100.00
9764;BME280;4921;43.214;27.936;2023-05-23T11:15:47;100688.31;;;18.09;100.00
9764;BME280;4921;43.214;27.936;2023-05-23T11:18:22;100682.34;;;18.07;100.00
9764;BME280;4921;43.214;27.936;2023-05-23T11:20:53;100682.00;;;18.10;100.00
9764;BME280;4921;43.214;27.936;2023-05-23T11:23:38;100682.81;;;18.18;100.00
9764;BME280;4921;43.214;27.936;2023-05-23T11:26:29;100675.28;;;18.38;100.00
9764;BME280;4921;43.214;27.936;2023-05-23T11:28:58;100689.78;;;18.27;100.00
9764;BME280;4921;43.214;27.936;2023-05-23T11:31:27;100678.84;;;17.98;100.00
9764;BME280;4921;43.214;27.936;2023-05-23T11:33:54;100673.19;;;17.93;100.00
9764;BME280;4921;43.214;27.936;2023-05-23T11:36:22;100676.81;;;18.16;100.00
9764;BME280;4921;43.214;27.936;2023-05-23T11:38:51;100663.97;;;18.36;100.00
9764;BME280;4921;43.214;27.936;2023-05-23T11:41:18;100675.94;;;18.40;100.00
9764;BME280;4921;43.214;27.936;2023-05-23T11:43:49;100672.78;;;18.37;100.00
9764;BME280;4921;43.214;27.936;2023-05-23T11:46:16;100680.13;;;18.35;100.00
9764;BME280;4921;43.214;27.936;2023-05-23T11:48:44;100677.13;;;18.29;100.00
9764;BME280;4921;43.214;27.936;2023-05-23T11:51:11;100676.44;;;18.52;100.00
9764;BME280;4921;43.214;27.936;2023-05-23T11:53:38;100670.75;;;18.63;100.00
9764;BME280;4921;43.214;27.936;2023-05-23T11:56:06;100671.16;;;18.74;100.00
9764;BME280;4921;43.214;27.936;2023-05-23T11:58:35;100671.16;;;18.82;100.00
9764;BME280;4921;43.214;27.936;2023-05-23T12:01:04;100671.44;;;18.87;100.00
9764;BME280;4921;43.214;27.936;2023-05-23T12:03:31;100672.22;;;18.96;100.00
9764;BME280;4921;43.214;27.936;2023-05-23T12:05:58;100660.28;;;18.53;100.00
9764;BME280;4921;43.214;27.936;2023-05-23T12:08:25;100664.41;;;18.64;100.00
9764;BME280;4921;43.214;27.936;2023-05-23T12:10:53;100662.44;;;18.42;100.00
9764;BME280;4921;43.214;27.936;2023-05-23T12:13:24;100654.63;;;18.48;100.00
9764;BME280;4921;43.214;27.936;2023-05-23T12:15:55;100649.44;;;18.63;100.00
9764;BME280;4921;43.214;27.936;2023-05-23T12:18:22;100653.16;;;18.29;100.00
9764;BME280;4921;43.214;27.936;2023-05-23T12:20:50;100648.34;;;18.25;100.00
9764;BME280;4921;43.214;27.936;2023-05-23T12:23:18;100651.84;;;18.25;100.00
9764;BME280;4921;43.214;27.936;2023-05-23T12:25:49;100655.09;;;18.60;100.00
9764;BME280;4921;43.214;27.936;2023-05-23T12:28:17;100646.03;;;18.77;100.00
9764;BME280;4921;43.214;27.936;2023-05-23T12:30:46;100654.63;;;18.87;100.00
9764;BME280;4921;43.214;27.936;2023-05-23T12:33:13;100647.97;;;18.91;100.00
9764;BME280;4921;43.214;27.936;2023-05-23T12:35:43;100650.88;;;19.04;100.00
9764;BME280;4921;43.214;27.936;2023-05-23T12:38:14;100642.31;;;19.17;100.00
9764;BME280;4921;43.214;27.936;2023-05-23T12:40:41;100647.13;;;19.21;100.00
9764;BME280;4921;43.214;27.936;2023-05-23T12:43:09;100643.91;;;19.26;100.00
9764;BME280;4921;43.214;27.936;2023-05-23T12:45:36;100642.88;;;19.35;100.00
9764;BME280;4921;43.214;27.936;2023-05-23T12:48:05;100637.13;;;19.46;100.00
9764;BME280;4921;43.214;27.936;2023-05-23T12:50:33;100641.44;;;18.93;100.00
9764;BME280;4921;43.214;27.936;2023-05-23T12:53:00;100643.03;;;19.02;100.00
9764;BME280;4921;43.214;27.936;2023-05-23T12:55:27;100636.88;;;19.02;100.00
9764;BME280;4921;43.214;27.936;2023-05-23T12:57:54;100630.81;;;18.85;100.00
9764;BME280;4921;43.214;27.936;2023-05-23T13:00:21;100641.31;;;18.48;100.00